WetterOnline ( http://www.wetteronline.de )

Wetter aktuell Marburg

Aktuelles Wetter: Neu-Ulrichstein (350m)

6-stündlich | Neueste Meldungen
Ortszeit Temperatur Wetter
Do, 16.08. 20:00 25.8° C leicht bewölkt
Do, 16.08. 14:00 24.7° C fast wolkenlos
Do, 16.08. 8:00 14.2° C wolkenlos
Do, 16.08. 2:00 15.6° C wolkenlos
Mi, 15.08. 20:00 20.0° C leicht bewölkt
Mi, 15.08. 14:00 20.0° C bewölkt
Mi, 15.08. 8:00 16.1° C bedeckt
Mi, 15.08. 2:00 16.7° C bedeckt
Ortszeit Temperatur Wetter
Do, 16.08. 21:00 24.0° C wolkenlos
Do, 16.08. 20:50 24.0° C wolkenlos
Do, 16.08. 20:40 23.5° C wolkenlos
Do, 16.08. 20:30 24.9° C leicht bewölkt
Do, 16.08. 20:20 24.9° C leicht bewölkt
Do, 16.08. 20:10 25.2° C leicht bewölkt
Do, 16.08. 20:00 25.8° C leicht bewölkt
Do, 16.08. 19:30 26.3° C leicht bewölkt
Do, 16.08. 19:00 26.7° C leicht bewölkt
Do, 16.08. 18:30 27.0° C leicht bewölkt
Do, 16.08. 18:00 27.0° C leicht bewölkt
Ortszeit Relative Feuchte Sichtweite
Do, 16.08. 20:00 44% 60 km
Do, 16.08. 14:00 48% 29 km
Do, 16.08. 8:00 81% 19 km
Do, 16.08. 2:00 74% 35 km
Mi, 15.08. 20:00 58% 45 km
Mi, 15.08. 14:00 58% 22 km
Mi, 15.08. 8:00 81% 11 km
Mi, 15.08. 2:00 87% 6 km
Ortszeit Relative Feuchte Sichtweite
Do, 16.08. 21:00 45% 60 km
Do, 16.08. 20:50 45% -
Do, 16.08. 20:40 49% -
Do, 16.08. 20:30 45% 65 km
Do, 16.08. 20:20 45% -
Do, 16.08. 20:10 45% -
Do, 16.08. 20:00 44% 60 km
Do, 16.08. 19:30 41% 60 km
Do, 16.08. 19:00 39% 60 km
Do, 16.08. 18:30 39% 50 km
Do, 16.08. 18:00 37% 50 km
Ortszeit Niederschlagsmenge Niederschlagsart
Do, 16.08. 20:00 0.0 l/m2 in 12 Std. -
Do, 16.08. 14:00 0.0 l/m2 in 6 Std. -
Do, 16.08. 8:00 0.0 l/m2 in 12 Std. -
Do, 16.08. 2:00 0.0 l/m2 in 6 Std. -
Mi, 15.08. 20:00 0.0 l/m2 in 12 Std. -
Mi, 15.08. 14:00 0.0 l/m2 in 6 Std. -
Mi, 15.08. 8:00 0.0 l/m2 in 12 Std. -
Mi, 15.08. 2:00 0.0 l/m2 in 6 Std. -
Ortszeit Niederschlagsmenge Niederschlagsart
Do, 16.08. 21:00 0.0 l/m2 in 1 Std. -
Do, 16.08. 20:50 keine Meldung -
Do, 16.08. 20:40 keine Meldung -
Do, 16.08. 20:30 0.0 l/m2 in 1 Std. -
Do, 16.08. 20:20 keine Meldung -
Do, 16.08. 20:10 keine Meldung -
Do, 16.08. 20:00 0.0 l/m2 in 1 Std. -
Do, 16.08. 19:30 0.0 l/m2 in 1 Std. -
Do, 16.08. 19:00 0.0 l/m2 in 1 Std. -
Do, 16.08. 18:30 0.0 l/m2 in 1 Std. -
Do, 16.08. 18:00 0.0 l/m2 in 1 Std. -
Ortszeit Stärke Spitze Richtung
km/h Bft. km/h Grad Sektor
Do, 16.08. 20:00 6 1 28 150° SO
Do, 16.08. 14:00 14 3 32 180° S
Do, 16.08. 8:00 6 1 9 100° O
Do, 16.08. 2:00 7 2 11 120° SO
Mi, 15.08. 20:00 6 1 22 300° NW
Mi, 15.08. 14:00 9 2 19 180° S
Mi, 15.08. 8:00 11 2 14 230° SW
Mi, 15.08. 2:00 9 2 22 230° SW
Ortszeit Stärke Spitze Richtung
km/h Bft. km/h Grad Sektor
Do, 16.08. 21:00 7 2 7 140° SO
Do, 16.08. 20:50 7 2 - 140° SO
Do, 16.08. 20:40 7 2 - 140° SO
Do, 16.08. 20:30 7 2 7 150° SO
Do, 16.08. 20:20 7 2 - 150° SO
Do, 16.08. 20:10 7 2 - 150° SO
Do, 16.08. 20:00 6 1 11 150° SO
Do, 16.08. 19:30 7 2 11 140° SO
Do, 16.08. 19:00 9 2 17 210° SW
Do, 16.08. 18:30 7 2 14 210° SW
Do, 16.08. 18:00 9 2 20 250° W
Ortszeit Untergrenze Bedeckung Gattung
total tief tief mittel hoch
Do, 16.08. 20:00 9000 m 8/8 0/8 - - -
Do, 16.08. 14:00 9000 m 1/8 0/8 - - -
Do, 16.08. 8:00 - 0/8 0/8 - - -
Do, 16.08. 2:00 - 0/8 0/8 - - -
Mi, 15.08. 20:00 1500 m 2/8 2/8 - - -
Mi, 15.08. 14:00 1470 m 7/8 7/8 - - -
Mi, 15.08. 8:00 1410 m 8/8 8/8 - - -
Mi, 15.08. 2:00 1110 m 8/8 8/8 - - -
Ortszeit Bedeckungsgrad in Achtel und Wolkenuntergrenze
Do, 16.08. 21:00 keine Wolken
Do, 16.08. 20:50 keine Wolken
Do, 16.08. 20:40 keine Wolken
Do, 16.08. 20:30 3(9000m)
Do, 16.08. 20:20 3(9000m)
Do, 16.08. 20:10 6(9000m)
Do, 16.08. 20:00 8(9000m)
Do, 16.08. 19:30 6(9000m) 6(10500m)
Do, 16.08. 19:00 6(10500m) 7(10500m)
Do, 16.08. 18:30 5(10500m) 5(10500m)
Do, 16.08. 18:00 7(10500m) 7(10500m) 7(10500m)
Ortszeit Luftdruck NN (hPa) Tendenz (hPa in 3 Std.)
Do, 16.08. 20:00 1013 - 0,8
Do, 16.08. 14:00 1016 - 1,0
Do, 16.08. 8:00 1019 - 0,4
Do, 16.08. 2:00 1020 - 0,2
Mi, 15.08. 20:00 1019 - 0,3
Mi, 15.08. 14:00 1020 - 0,1
Mi, 15.08. 8:00 1020 + 1,0
Mi, 15.08. 2:00 1019 + 1,0
Ortszeit Luftdruck NN (hPa) Tendenz (hPa in 3 Std.)
Do, 16.08. 21:00 1013 - 0,6
Do, 16.08. 20:50 1013 keine Meldung
Do, 16.08. 20:40 1013 keine Meldung
Do, 16.08. 20:30 1013 - 0,7
Do, 16.08. 20:20 1013 keine Meldung
Do, 16.08. 20:10 1013 keine Meldung
Do, 16.08. 20:00 1013 - 0,8
Do, 16.08. 19:30 1013 - 1,0
Do, 16.08. 19:00 1013 - 1,1
Do, 16.08. 18:30 1013 - 1,1
Do, 16.08. 18:00 1013 - 1,2
Ortszeit Schneehöhe (cm)
Do, 16.08. 20:00 -
Do, 16.08. 14:00 -
Do, 16.08. 8:00 -
Do, 16.08. 2:00 -
Mi, 15.08. 20:00 -
Mi, 15.08. 14:00 -
Mi, 15.08. 8:00 -
Mi, 15.08. 2:00 -
Ortszeit Schneehöhe (cm)
Do, 16.08. 21:00 -
Do, 16.08. 20:50 -
Do, 16.08. 20:40 -
Do, 16.08. 20:30 -
Do, 16.08. 20:20 -
Do, 16.08. 20:10 -
Do, 16.08. 20:00 -
Do, 16.08. 19:30 -
Do, 16.08. 19:00 -
Do, 16.08. 18:30 -
Do, 16.08. 18:00 -
Link zu dieser Seite / Seite empfehlen

Das Wetter in ...